sensor_id;sensor_type;location;lat;lon;timestamp;P1;durP1;ratioP1;P2;durP2;ratioP2
4676;SDS011;2352;48.180;11.478;2022-12-18T00:00:00;40.57;;;30.03;;
4676;SDS011;2352;48.180;11.478;2022-12-18T00:03:03;42.33;;;29.77;;
4676;SDS011;2352;48.180;11.478;2022-12-18T00:06:06;41.43;;;28.83;;
4676;SDS011;2352;48.180;11.478;2022-12-18T00:09:10;39.20;;;30.63;;
4676;SDS011;2352;48.180;11.478;2022-12-18T00:12:13;48.23;;;33.03;;
4676;SDS011;2352;48.180;11.478;2022-12-18T00:15:22;49.50;;;33.47;;
4676;SDS011;2352;48.180;11.478;2022-12-18T00:18:26;44.20;;;31.33;;
4676;SDS011;2352;48.180;11.478;2022-12-18T00:21:29;41.77;;;31.60;;
4676;SDS011;2352;48.180;11.478;2022-12-18T00:24:33;45.03;;;30.53;;
4676;SDS011;2352;48.180;11.478;2022-12-18T00:27:36;48.93;;;31.77;;
4676;SDS011;2352;48.180;11.478;2022-12-18T00:30:40;49.37;;;33.50;;
4676;SDS011;2352;48.180;11.478;2022-12-18T00:33:43;45.80;;;32.73;;
4676;SDS011;2352;48.180;11.478;2022-12-18T00:36:48;46.23;;;32.03;;
4676;SDS011;2352;48.180;11.478;2022-12-18T00:39:51;40.73;;;28.33;;
4676;SDS011;2352;48.180;11.478;2022-12-18T00:42:54;44.23;;;30.53;;
4676;SDS011;2352;48.180;11.478;2022-12-18T00:46:00;43.00;;;30.07;;
4676;SDS011;2352;48.180;11.478;2022-12-18T00:49:03;42.37;;;30.47;;
4676;SDS011;2352;48.180;11.478;2022-12-18T00:52:06;43.50;;;29.83;;
4676;SDS011;2352;48.180;11.478;2022-12-18T00:55:09;45.80;;;32.80;;
4676;SDS011;2352;48.180;11.478;2022-12-18T00:58:13;45.40;;;31.23;;
4676;SDS011;2352;48.180;11.478;2022-12-18T01:01:19;43.53;;;30.00;;
4676;SDS011;2352;48.180;11.478;2022-12-18T01:04:22;44.53;;;32.60;;
4676;SDS011;2352;48.180;11.478;2022-12-18T01:07:25;47.03;;;31.13;;
4676;SDS011;2352;48.180;11.478;2022-12-18T01:10:28;41.60;;;29.33;;
4676;SDS011;2352;48.180;11.478;2022-12-18T01:13:31;41.57;;;29.03;;
4676;SDS011;2352;48.180;11.478;2022-12-18T01:16:35;44.13;;;28.73;;
4676;SDS011;2352;48.180;11.478;2022-12-18T01:19:38;43.77;;;29.30;;
4676;SDS011;2352;48.180;11.478;2022-12-18T01:22:41;43.63;;;29.37;;
4676;SDS011;2352;48.180;11.478;2022-12-18T01:25:44;39.63;;;27.87;;
4676;SDS011;2352;48.180;11.478;2022-12-18T01:28:47;43.00;;;29.07;;
4676;SDS011;2352;48.180;11.478;2022-12-18T01:31:54;38.70;;;28.17;;
4676;SDS011;2352;48.180;11.478;2022-12-18T01:34:57;42.30;;;29.37;;
4676;SDS011;2352;48.180;11.478;2022-12-18T01:38:00;50.27;;;29.87;;
4676;SDS011;2352;48.180;11.478;2022-12-18T01:41:03;41.47;;;29.00;;
4676;SDS011;2352;48.180;11.478;2022-12-18T01:47:44;39.70;;;27.33;;
4676;SDS011;2352;48.180;11.478;2022-12-18T01:50:49;47.20;;;30.93;;
4676;SDS011;2352;48.180;11.478;2022-12-18T01:53:52;42.57;;;29.37;;
4676;SDS011;2352;48.180;11.478;2022-12-18T01:56:55;40.03;;;28.13;;
4676;SDS011;2352;48.180;11.478;2022-12-18T01:59:59;42.60;;;28.53;;
4676;SDS011;2352;48.180;11.478;2022-12-18T02:03:07;41.03;;;28.40;;
4676;SDS011;2352;48.180;11.478;2022-12-18T02:06:13;41.53;;;27.53;;
4676;SDS011;2352;48.180;11.478;2022-12-18T02:09:19;42.33;;;27.73;;
4676;SDS011;2352;48.180;11.478;2022-12-18T02:12:27;42.70;;;28.60;;
4676;SDS011;2352;48.180;11.478;2022-12-18T02:15:38;43.37;;;30.30;;
4676;SDS011;2352;48.180;11.478;2022-12-18T02:18:48;46.30;;;30.53;;
4676;SDS011;2352;48.180;11.478;2022-12-18T02:21:54;41.97;;;29.27;;
4676;SDS011;2352;48.180;11.478;2022-12-18T02:25:06;47.07;;;31.73;;
4676;SDS011;2352;48.180;11.478;2022-12-18T02:28:28;40.97;;;28.83;;
4676;SDS011;2352;48.180;11.478;2022-12-18T02:31:35;47.83;;;31.50;;
4676;SDS011;2352;48.180;11.478;2022-12-18T02:34:42;50.10;;;30.60;;
4676;SDS011;2352;48.180;11.478;2022-12-18T02:37:46;45.13;;;28.63;;
4676;SDS011;2352;48.180;11.478;2022-12-18T02:40:49;46.17;;;31.20;;
4676;SDS011;2352;48.180;11.478;2022-12-18T02:43:57;47.43;;;32.20;;
4676;SDS011;2352;48.180;11.478;2022-12-18T02:47:04;45.67;;;31.27;;
4676;SDS011;2352;48.180;11.478;2022-12-18T02:50:08;51.33;;;32.70;;
4676;SDS011;2352;48.180;11.478;2022-12-18T02:53:19;53.80;;;33.77;;
4676;SDS011;2352;48.180;11.478;2022-12-18T02:56:29;44.93;;;31.00;;
4676;SDS011;2352;48.180;11.478;2022-12-18T02:59:39;47.17;;;32.07;;
4676;SDS011;2352;48.180;11.478;2022-12-18T03:02:50;51.13;;;34.50;;
4676;SDS011;2352;48.180;11.478;2022-12-18T03:05:57;47.77;;;31.57;;
4676;SDS011;2352;48.180;11.478;2022-12-18T03:09:06;52.00;;;33.97;;
4676;SDS011;2352;48.180;11.478;2022-12-18T03:12:14;44.70;;;31.80;;
4676;SDS011;2352;48.180;11.478;2022-12-18T03:15:28;47.23;;;30.13;;
4676;SDS011;2352;48.180;11.478;2022-12-18T03:18:35;47.00;;;31.17;;
4676;SDS011;2352;48.180;11.478;2022-12-18T03:21:42;49.97;;;31.87;;
4676;SDS011;2352;48.180;11.478;2022-12-18T03:24:47;47.17;;;31.70;;
4676;SDS011;2352;48.180;11.478;2022-12-18T03:27:51;49.97;;;33.10;;
4676;SDS011;2352;48.180;11.478;2022-12-18T03:30:58;50.60;;;33.47;;
4676;SDS011;2352;48.180;11.478;2022-12-18T03:34:04;49.93;;;32.10;;
4676;SDS011;2352;48.180;11.478;2022-12-18T03:37:11;49.10;;;32.83;;
4676;SDS011;2352;48.180;11.478;2022-12-18T03:40:14;47.43;;;31.03;;
4676;SDS011;2352;48.180;11.478;2022-12-18T03:43:19;53.93;;;33.53;;
4676;SDS011;2352;48.180;11.478;2022-12-18T03:46:30;48.33;;;31.70;;
4676;SDS011;2352;48.180;11.478;2022-12-18T03:49:43;46.67;;;32.57;;
4676;SDS011;2352;48.180;11.478;2022-12-18T03:52:53;52.53;;;33.50;;
4676;SDS011;2352;48.180;11.478;2022-12-18T03:56:00;47.13;;;33.27;;
4676;SDS011;2352;48.180;11.478;2022-12-18T03:59:06;48.37;;;33.10;;
4676;SDS011;2352;48.180;11.478;2022-12-18T04:02:13;49.00;;;32.53;;
4676;SDS011;2352;48.180;11.478;2022-12-18T04:05:18;44.40;;;31.97;;
4676;SDS011;2352;48.180;11.478;2022-12-18T04:08:22;49.57;;;33.20;;
4676;SDS011;2352;48.180;11.478;2022-12-18T04:11:26;47.60;;;31.87;;
4676;SDS011;2352;48.180;11.478;2022-12-18T04:14:29;51.70;;;34.60;;
4676;SDS011;2352;48.180;11.478;2022-12-18T04:17:38;46.93;;;31.93;;
4676;SDS011;2352;48.180;11.478;2022-12-18T04:20:44;43.00;;;30.50;;
4676;SDS011;2352;48.180;11.478;2022-12-18T04:23:47;46.90;;;29.80;;
4676;SDS011;2352;48.180;11.478;2022-12-18T04:26:50;44.97;;;29.87;;
4676;SDS011;2352;48.180;11.478;2022-12-18T04:29:53;42.20;;;30.30;;
4676;SDS011;2352;48.180;11.478;2022-12-18T04:32:57;44.50;;;30.63;;
4676;SDS011;2352;48.180;11.478;2022-12-18T04:36:00;50.10;;;33.07;;
4676;SDS011;2352;48.180;11.478;2022-12-18T04:39:03;51.93;;;32.50;;
4676;SDS011;2352;48.180;11.478;2022-12-18T04:42:06;49.47;;;31.30;;
4676;SDS011;2352;48.180;11.478;2022-12-18T04:45:09;50.83;;;31.47;;
4676;SDS011;2352;48.180;11.478;2022-12-18T04:48:13;41.90;;;29.53;;
4676;SDS011;2352;48.180;11.478;2022-12-18T04:51:16;43.60;;;30.67;;
4676;SDS011;2352;48.180;11.478;2022-12-18T04:54:26;43.57;;;30.47;;
4676;SDS011;2352;48.180;11.478;2022-12-18T04:57:29;45.87;;;30.63;;
4676;SDS011;2352;48.180;11.478;2022-12-18T05:00:32;46.43;;;31.97;;
4676;SDS011;2352;48.180;11.478;2022-12-18T05:03:36;43.33;;;28.23;;
4676;SDS011;2352;48.180;11.478;2022-12-18T05:06:40;43.73;;;30.07;;
4676;SDS011;2352;48.180;11.478;2022-12-18T05:09:43;43.87;;;29.67;;
4676;SDS011;2352;48.180;11.478;2022-12-18T05:12:46;35.67;;;26.37;;
4676;SDS011;2352;48.180;11.478;2022-12-18T05:16:04;43.83;;;29.63;;
4676;SDS011;2352;48.180;11.478;2022-12-18T05:19:09;41.73;;;29.37;;
4676;SDS011;2352;48.180;11.478;2022-12-18T05:22:13;40.93;;;27.57;;
4676;SDS011;2352;48.180;11.478;2022-12-18T05:25:16;43.93;;;28.50;;
4676;SDS011;2352;48.180;11.478;2022-12-18T05:28:20;36.23;;;26.23;;
4676;SDS011;2352;48.180;11.478;2022-12-18T05:31:24;43.83;;;29.80;;
4676;SDS011;2352;48.180;11.478;2022-12-18T05:34:28;38.93;;;28.10;;
4676;SDS011;2352;48.180;11.478;2022-12-18T05:37:32;42.90;;;27.30;;
4676;SDS011;2352;48.180;11.478;2022-12-18T05:40:42;37.10;;;27.47;;
4676;SDS011;2352;48.180;11.478;2022-12-18T05:43:46;41.17;;;29.00;;
4676;SDS011;2352;48.180;11.478;2022-12-18T05:46:49;38.33;;;28.10;;
4676;SDS011;2352;48.180;11.478;2022-12-18T05:49:53;38.87;;;27.90;;
4676;SDS011;2352;48.180;11.478;2022-12-18T05:52:56;39.03;;;27.77;;
4676;SDS011;2352;48.180;11.478;2022-12-18T05:56:00;43.03;;;27.30;;
4676;SDS011;2352;48.180;11.478;2022-12-18T05:59:03;43.60;;;28.13;;
4676;SDS011;2352;48.180;11.478;2022-12-18T06:02:06;39.73;;;27.83;;
4676;SDS011;2352;48.180;11.478;2022-12-18T06:05:11;40.13;;;27.17;;
4676;SDS011;2352;48.180;11.478;2022-12-18T06:08:14;38.80;;;27.13;;
4676;SDS011;2352;48.180;11.478;2022-12-18T06:11:18;36.93;;;26.70;;
4676;SDS011;2352;48.180;11.478;2022-12-18T06:14:22;41.30;;;28.50;;
4676;SDS011;2352;48.180;11.478;2022-12-18T06:17:27;39.87;;;27.10;;
4676;SDS011;2352;48.180;11.478;2022-12-18T06:20:32;37.50;;;26.83;;
4676;SDS011;2352;48.180;11.478;2022-12-18T06:23:37;45.70;;;29.07;;
4676;SDS011;2352;48.180;11.478;2022-12-18T06:26:41;34.13;;;26.73;;
4676;SDS011;2352;48.180;11.478;2022-12-18T06:29:44;39.53;;;28.13;;
4676;SDS011;2352;48.180;11.478;2022-12-18T06:32:47;38.53;;;27.23;;
4676;SDS011;2352;48.180;11.478;2022-12-18T06:36:00;32.87;;;25.83;;
4676;SDS011;2352;48.180;11.478;2022-12-18T06:39:04;41.57;;;27.13;;
4676;SDS011;2352;48.180;11.478;2022-12-18T06:42:07;40.50;;;28.27;;
4676;SDS011;2352;48.180;11.478;2022-12-18T06:45:10;40.87;;;28.17;;
4676;SDS011;2352;48.180;11.478;2022-12-18T06:48:13;36.73;;;27.07;;
4676;SDS011;2352;48.180;11.478;2022-12-18T06:51:18;38.00;;;26.67;;
4676;SDS011;2352;48.180;11.478;2022-12-18T06:54:22;37.70;;;26.40;;
4676;SDS011;2352;48.180;11.478;2022-12-18T06:57:25;39.23;;;27.30;;
4676;SDS011;2352;48.180;11.478;2022-12-18T07:00:28;39.13;;;27.97;;
4676;SDS011;2352;48.180;11.478;2022-12-18T07:03:31;39.27;;;28.70;;
4676;SDS011;2352;48.180;11.478;2022-12-18T07:06:35;40.30;;;27.93;;
4676;SDS011;2352;48.180;11.478;2022-12-18T07:09:38;35.20;;;25.97;;
4676;SDS011;2352;48.180;11.478;2022-12-18T07:12:41;39.17;;;26.07;;
4676;SDS011;2352;48.180;11.478;2022-12-18T07:15:44;33.27;;;24.00;;
4676;SDS011;2352;48.180;11.478;2022-12-18T07:18:47;33.03;;;24.33;;
4676;SDS011;2352;48.180;11.478;2022-12-18T07:21:51;35.40;;;25.70;;
4676;SDS011;2352;48.180;11.478;2022-12-18T07:24:54;41.03;;;25.63;;
4676;SDS011;2352;48.180;11.478;2022-12-18T07:27:57;35.93;;;26.07;;
4676;SDS011;2352;48.180;11.478;2022-12-18T07:31:02;32.70;;;23.97;;
4676;SDS011;2352;48.180;11.478;2022-12-18T07:34:09;31.07;;;22.03;;
4676;SDS011;2352;48.180;11.478;2022-12-18T07:37:14;34.80;;;24.60;;
4676;SDS011;2352;48.180;11.478;2022-12-18T07:40:17;32.90;;;24.07;;
4676;SDS011;2352;48.180;11.478;2022-12-18T07:43:20;33.27;;;24.73;;
4676;SDS011;2352;48.180;11.478;2022-12-18T07:46:23;39.77;;;25.70;;
4676;SDS011;2352;48.180;11.478;2022-12-18T07:49:26;32.97;;;24.47;;
4676;SDS011;2352;48.180;11.478;2022-12-18T07:52:30;32.53;;;24.53;;
4676;SDS011;2352;48.180;11.478;2022-12-18T07:55:34;33.77;;;25.30;;
4676;SDS011;2352;48.180;11.478;2022-12-18T07:58:57;34.17;;;24.97;;
4676;SDS011;2352;48.180;11.478;2022-12-18T08:02:01;33.80;;;24.57;;
4676;SDS011;2352;48.180;11.478;2022-12-18T08:05:04;32.83;;;25.57;;
4676;SDS011;2352;48.180;11.478;2022-12-18T08:08:09;31.63;;;22.87;;
4676;SDS011;2352;48.180;11.478;2022-12-18T08:11:12;32.07;;;23.77;;
4676;SDS011;2352;48.180;11.478;2022-12-18T08:14:15;32.63;;;24.23;;
4676;SDS011;2352;48.180;11.478;2022-12-18T08:17:18;34.23;;;24.77;;
4676;SDS011;2352;48.180;11.478;2022-12-18T08:20:22;32.60;;;24.30;;
4676;SDS011;2352;48.180;11.478;2022-12-18T08:23:26;33.20;;;22.97;;
4676;SDS011;2352;48.180;11.478;2022-12-18T08:26:29;29.80;;;22.07;;
4676;SDS011;2352;48.180;11.478;2022-12-18T08:29:34;32.77;;;24.90;;
4676;SDS011;2352;48.180;11.478;2022-12-18T08:32:37;35.33;;;25.77;;
4676;SDS011;2352;48.180;11.478;2022-12-18T08:35:40;32.60;;;23.60;;
4676;SDS011;2352;48.180;11.478;2022-12-18T08:38:47;38.53;;;26.60;;
4676;SDS011;2352;48.180;11.478;2022-12-18T08:41:50;39.13;;;26.67;;
4676;SDS011;2352;48.180;11.478;2022-12-18T08:45:10;39.40;;;27.57;;
4676;SDS011;2352;48.180;11.478;2022-12-18T08:48:13;37.23;;;26.00;;
4676;SDS011;2352;48.180;11.478;2022-12-18T08:51:22;38.77;;;28.50;;
4676;SDS011;2352;48.180;11.478;2022-12-18T08:54:27;37.50;;;26.00;;
4676;SDS011;2352;48.180;11.478;2022-12-18T08:57:30;37.23;;;25.53;;
4676;SDS011;2352;48.180;11.478;2022-12-18T09:00:33;38.37;;;27.27;;
4676;SDS011;2352;48.180;11.478;2022-12-18T09:03:36;41.50;;;27.47;;
4676;SDS011;2352;48.180;11.478;2022-12-18T09:06:40;37.33;;;27.00;;
4676;SDS011;2352;48.180;11.478;2022-12-18T09:09:45;36.30;;;26.17;;
4676;SDS011;2352;48.180;11.478;2022-12-18T09:12:47;33.47;;;25.00;;
4676;SDS011;2352;48.180;11.478;2022-12-18T09:15:52;35.27;;;25.90;;
4676;SDS011;2352;48.180;11.478;2022-12-18T09:18:55;33.27;;;25.50;;
4676;SDS011;2352;48.180;11.478;2022-12-18T09:22:00;34.43;;;25.90;;
4676;SDS011;2352;48.180;11.478;2022-12-18T09:25:06;35.20;;;26.03;;
4676;SDS011;2352;48.180;11.478;2022-12-18T09:28:10;36.47;;;25.43;;
4676;SDS011;2352;48.180;11.478;2022-12-18T09:31:18;33.97;;;24.57;;
4676;SDS011;2352;48.180;11.478;2022-12-18T09:34:23;33.27;;;25.53;;
4676;SDS011;2352;48.180;11.478;2022-12-18T09:37:26;37.80;;;25.60;;
4676;SDS011;2352;48.180;11.478;2022-12-18T09:40:32;33.73;;;23.87;;
4676;SDS011;2352;48.180;11.478;2022-12-18T09:43:40;29.57;;;22.97;;
4676;SDS011;2352;48.180;11.478;2022-12-18T09:46:49;29.57;;;22.17;;
4676;SDS011;2352;48.180;11.478;2022-12-18T09:49:56;31.73;;;22.97;;
4676;SDS011;2352;48.180;11.478;2022-12-18T09:53:04;31.53;;;22.53;;
4676;SDS011;2352;48.180;11.478;2022-12-18T09:56:15;34.13;;;23.87;;
4676;SDS011;2352;48.180;11.478;2022-12-18T09:59:22;35.17;;;25.13;;
4676;SDS011;2352;48.180;11.478;2022-12-18T10:02:30;30.70;;;24.50;;
4676;SDS011;2352;48.180;11.478;2022-12-18T10:05:35;35.23;;;27.40;;
4676;SDS011;2352;48.180;11.478;2022-12-18T10:08:45;36.33;;;25.47;;
4676;SDS011;2352;48.180;11.478;2022-12-18T10:11:59;33.00;;;24.67;;
4676;SDS011;2352;48.180;11.478;2022-12-18T10:15:10;33.03;;;25.40;;
4676;SDS011;2352;48.180;11.478;2022-12-18T10:18:21;35.13;;;23.57;;
4676;SDS011;2352;48.180;11.478;2022-12-18T10:21:35;32.03;;;24.63;;
4676;SDS011;2352;48.180;11.478;2022-12-18T10:24:42;38.03;;;26.20;;
4676;SDS011;2352;48.180;11.478;2022-12-18T10:27:53;32.37;;;24.53;;
4676;SDS011;2352;48.180;11.478;2022-12-18T10:30:59;33.80;;;23.17;;
4676;SDS011;2352;48.180;11.478;2022-12-18T10:34:02;28.40;;;22.20;;
4676;SDS011;2352;48.180;11.478;2022-12-18T10:37:06;33.87;;;23.13;;
4676;SDS011;2352;48.180;11.478;2022-12-18T10:40:15;26.23;;;22.10;;
4676;SDS011;2352;48.180;11.478;2022-12-18T10:43:25;24.60;;;19.03;;
4676;SDS011;2352;48.180;11.478;2022-12-18T10:46:30;27.57;;;21.03;;
4676;SDS011;2352;48.180;11.478;2022-12-18T10:49:33;25.87;;;22.07;;
4676;SDS011;2352;48.180;11.478;2022-12-18T10:52:38;26.53;;;21.83;;
4676;SDS011;2352;48.180;11.478;2022-12-18T10:55:47;28.10;;;21.50;;
4676;SDS011;2352;48.180;11.478;2022-12-18T10:58:56;32.73;;;23.73;;
4676;SDS011;2352;48.180;11.478;2022-12-18T11:02:07;32.93;;;25.47;;
4676;SDS011;2352;48.180;11.478;2022-12-18T11:05:29;36.13;;;27.20;;
4676;SDS011;2352;48.180;11.478;2022-12-18T11:08:33;40.10;;;28.77;;
4676;SDS011;2352;48.180;11.478;2022-12-18T11:11:37;37.43;;;26.93;;
4676;SDS011;2352;48.180;11.478;2022-12-18T11:14:43;38.50;;;27.77;;
4676;SDS011;2352;48.180;11.478;2022-12-18T11:17:50;44.63;;;31.70;;
4676;SDS011;2352;48.180;11.478;2022-12-18T11:20:55;37.97;;;28.43;;
4676;SDS011;2352;48.180;11.478;2022-12-18T11:24:00;41.33;;;29.33;;
4676;SDS011;2352;48.180;11.478;2022-12-18T11:27:03;35.17;;;25.80;;
4676;SDS011;2352;48.180;11.478;2022-12-18T11:30:22;33.03;;;23.87;;
4676;SDS011;2352;48.180;11.478;2022-12-18T11:33:27;31.63;;;24.03;;
4676;SDS011;2352;48.180;11.478;2022-12-18T11:36:31;28.60;;;24.13;;
4676;SDS011;2352;48.180;11.478;2022-12-18T11:39:39;30.27;;;22.67;;
4676;SDS011;2352;48.180;11.478;2022-12-18T11:42:46;37.27;;;26.57;;
4676;SDS011;2352;48.180;11.478;2022-12-18T11:45:55;35.60;;;26.17;;
4676;SDS011;2352;48.180;11.478;2022-12-18T11:49:03;44.47;;;32.23;;
4676;SDS011;2352;48.180;11.478;2022-12-18T11:52:15;46.40;;;32.67;;
4676;SDS011;2352;48.180;11.478;2022-12-18T11:55:24;55.30;;;34.87;;
4676;SDS011;2352;48.180;11.478;2022-12-18T12:02:02;53.40;;;35.77;;
4676;SDS011;2352;48.180;11.478;2022-12-18T12:05:19;47.67;;;33.63;;
4676;SDS011;2352;48.180;11.478;2022-12-18T12:08:38;53.43;;;35.90;;
4676;SDS011;2352;48.180;11.478;2022-12-18T12:11:56;46.23;;;34.10;;
4676;SDS011;2352;48.180;11.478;2022-12-18T12:15:12;46.73;;;31.80;;
4676;SDS011;2352;48.180;11.478;2022-12-18T12:18:31;42.93;;;30.10;;
4676;SDS011;2352;48.180;11.478;2022-12-18T12:21:43;37.40;;;26.57;;
4676;SDS011;2352;48.180;11.478;2022-12-18T12:24:59;36.40;;;28.27;;
4676;SDS011;2352;48.180;11.478;2022-12-18T12:28:15;34.60;;;26.20;;
4676;SDS011;2352;48.180;11.478;2022-12-18T12:31:48;38.60;;;27.13;;
4676;SDS011;2352;48.180;11.478;2022-12-18T12:35:08;35.57;;;25.30;;
4676;SDS011;2352;48.180;11.478;2022-12-18T12:38:23;32.33;;;24.23;;
4676;SDS011;2352;48.180;11.478;2022-12-18T12:41:31;31.13;;;23.67;;
4676;SDS011;2352;48.180;11.478;2022-12-18T12:44:54;28.77;;;23.63;;
4676;SDS011;2352;48.180;11.478;2022-12-18T12:47:59;31.50;;;22.70;;
4676;SDS011;2352;48.180;11.478;2022-12-18T12:51:09;32.17;;;24.80;;
4676;SDS011;2352;48.180;11.478;2022-12-18T12:54:17;30.23;;;22.77;;
4676;SDS011;2352;48.180;11.478;2022-12-18T12:57:23;28.70;;;23.13;;
4676;SDS011;2352;48.180;11.478;2022-12-18T13:00:35;30.70;;;22.43;;
4676;SDS011;2352;48.180;11.478;2022-12-18T13:03:46;25.13;;;19.43;;
4676;SDS011;2352;48.180;11.478;2022-12-18T13:06:58;27.33;;;20.33;;
4676;SDS011;2352;48.180;11.478;2022-12-18T13:10:23;25.33;;;20.27;;
4676;SDS011;2352;48.180;11.478;2022-12-18T13:13:37;28.93;;;20.80;;
4676;SDS011;2352;48.180;11.478;2022-12-18T13:16:51;26.67;;;21.93;;
4676;SDS011;2352;48.180;11.478;2022-12-18T13:20:15;24.93;;;20.00;;
4676;SDS011;2352;48.180;11.478;2022-12-18T13:23:25;25.97;;;20.37;;
4676;SDS011;2352;48.180;11.478;2022-12-18T13:26:38;23.83;;;20.33;;
4676;SDS011;2352;48.180;11.478;2022-12-18T13:29:42;26.23;;;20.47;;
4676;SDS011;2352;48.180;11.478;2022-12-18T13:32:47;23.50;;;19.27;;
4676;SDS011;2352;48.180;11.478;2022-12-18T13:35:51;30.43;;;22.90;;
4676;SDS011;2352;48.180;11.478;2022-12-18T13:39:10;27.43;;;20.37;;
4676;SDS011;2352;48.180;11.478;2022-12-18T13:42:39;27.33;;;21.63;;
4676;SDS011;2352;48.180;11.478;2022-12-18T13:46:04;26.83;;;21.77;;
4676;SDS011;2352;48.180;11.478;2022-12-18T13:49:20;28.33;;;21.50;;
4676;SDS011;2352;48.180;11.478;2022-12-18T13:52:26;27.77;;;20.10;;
4676;SDS011;2352;48.180;11.478;2022-12-18T13:55:32;25.90;;;20.43;;
4676;SDS011;2352;48.180;11.478;2022-12-18T13:58:36;28.63;;;20.73;;
4676;SDS011;2352;48.180;11.478;2022-12-18T14:01:44;28.47;;;20.40;;
4676;SDS011;2352;48.180;11.478;2022-12-18T14:04:49;27.13;;;20.73;;
4676;SDS011;2352;48.180;11.478;2022-12-18T14:07:53;26.40;;;20.53;;
4676;SDS011;2352;48.180;11.478;2022-12-18T14:10:58;25.90;;;19.90;;
4676;SDS011;2352;48.180;11.478;2022-12-18T14:14:03;25.47;;;20.77;;
4676;SDS011;2352;48.180;11.478;2022-12-18T14:17:09;25.20;;;19.40;;
4676;SDS011;2352;48.180;11.478;2022-12-18T14:20:13;28.30;;;21.47;;
4676;SDS011;2352;48.180;11.478;2022-12-18T14:23:27;27.57;;;21.23;;
4676;SDS011;2352;48.180;11.478;2022-12-18T14:26:33;29.93;;;20.97;;
4676;SDS011;2352;48.180;11.478;2022-12-18T14:29:36;31.77;;;22.57;;
4676;SDS011;2352;48.180;11.478;2022-12-18T14:32:58;29.47;;;22.07;;
4676;SDS011;2352;48.180;11.478;2022-12-18T14:36:03;30.90;;;22.47;;
4676;SDS011;2352;48.180;11.478;2022-12-18T14:39:12;26.57;;;21.37;;
4676;SDS011;2352;48.180;11.478;2022-12-18T14:42:21;31.03;;;21.30;;
4676;SDS011;2352;48.180;11.478;2022-12-18T14:45:36;25.43;;;21.17;;
4676;SDS011;2352;48.180;11.478;2022-12-18T14:48:43;27.73;;;21.43;;
4676;SDS011;2352;48.180;11.478;2022-12-18T14:51:50;28.13;;;21.87;;
4676;SDS011;2352;48.180;11.478;2022-12-18T14:54:54;24.50;;;20.27;;
4676;SDS011;2352;48.180;11.478;2022-12-18T14:57:59;30.07;;;22.70;;
4676;SDS011;2352;48.180;11.478;2022-12-18T15:01:01;26.47;;;21.00;;
4676;SDS011;2352;48.180;11.478;2022-12-18T15:04:05;28.53;;;21.77;;
4676;SDS011;2352;48.180;11.478;2022-12-18T15:07:26;27.87;;;21.07;;
4676;SDS011;2352;48.180;11.478;2022-12-18T15:10:30;27.40;;;21.60;;
4676;SDS011;2352;48.180;11.478;2022-12-18T15:13:35;31.70;;;22.80;;
4676;SDS011;2352;48.180;11.478;2022-12-18T15:16:39;30.77;;;23.47;;
4676;SDS011;2352;48.180;11.478;2022-12-18T15:19:46;31.60;;;22.17;;
4676;SDS011;2352;48.180;11.478;2022-12-18T15:22:52;30.17;;;22.57;;
4676;SDS011;2352;48.180;11.478;2022-12-18T15:25:55;31.27;;;22.20;;
4676;SDS011;2352;48.180;11.478;2022-12-18T15:29:01;33.10;;;24.67;;
4676;SDS011;2352;48.180;11.478;2022-12-18T15:32:04;30.37;;;23.87;;
4676;SDS011;2352;48.180;11.478;2022-12-18T15:35:21;29.93;;;22.93;;
4676;SDS011;2352;48.180;11.478;2022-12-18T15:38:25;33.70;;;25.17;;
4676;SDS011;2352;48.180;11.478;2022-12-18T15:41:30;36.30;;;26.77;;
4676;SDS011;2352;48.180;11.478;2022-12-18T15:44:37;30.77;;;23.30;;
4676;SDS011;2352;48.180;11.478;2022-12-18T15:47:40;34.97;;;25.63;;
4676;SDS011;2352;48.180;11.478;2022-12-18T15:50:44;34.20;;;25.80;;
4676;SDS011;2352;48.180;11.478;2022-12-18T15:53:47;33.10;;;23.20;;
4676;SDS011;2352;48.180;11.478;2022-12-18T15:56:51;39.80;;;27.40;;
4676;SDS011;2352;48.180;11.478;2022-12-18T16:00:13;37.47;;;25.00;;
4676;SDS011;2352;48.180;11.478;2022-12-18T16:03:17;36.50;;;25.53;;
4676;SDS011;2352;48.180;11.478;2022-12-18T16:06:20;33.27;;;24.70;;
4676;SDS011;2352;48.180;11.478;2022-12-18T16:09:23;32.77;;;23.93;;
4676;SDS011;2352;48.180;11.478;2022-12-18T16:12:26;28.63;;;22.97;;
4676;SDS011;2352;48.180;11.478;2022-12-18T16:15:31;33.07;;;24.77;;
4676;SDS011;2352;48.180;11.478;2022-12-18T16:18:34;33.27;;;23.73;;
4676;SDS011;2352;48.180;11.478;2022-12-18T16:21:37;33.33;;;25.33;;
4676;SDS011;2352;48.180;11.478;2022-12-18T16:24:39;37.40;;;26.70;;
4676;SDS011;2352;48.180;11.478;2022-12-18T16:27:43;32.33;;;24.10;;
4676;SDS011;2352;48.180;11.478;2022-12-18T16:30:49;34.30;;;24.63;;
4676;SDS011;2352;48.180;11.478;2022-12-18T16:37:22;36.03;;;27.13;;
4676;SDS011;2352;48.180;11.478;2022-12-18T16:40:25;37.80;;;26.90;;
4676;SDS011;2352;48.180;11.478;2022-12-18T16:43:28;37.93;;;27.20;;
4676;SDS011;2352;48.180;11.478;2022-12-18T16:46:33;34.33;;;25.53;;
4676;SDS011;2352;48.180;11.478;2022-12-18T16:49:36;28.20;;;22.90;;
4676;SDS011;2352;48.180;11.478;2022-12-18T16:52:39;29.80;;;23.80;;
4676;SDS011;2352;48.180;11.478;2022-12-18T16:55:43;31.37;;;23.67;;
4676;SDS011;2352;48.180;11.478;2022-12-18T16:58:49;28.33;;;21.50;;
4676;SDS011;2352;48.180;11.478;2022-12-18T17:01:54;27.93;;;22.37;;
4676;SDS011;2352;48.180;11.478;2022-12-18T17:04:57;28.10;;;22.40;;
4676;SDS011;2352;48.180;11.478;2022-12-18T17:08:00;36.17;;;23.30;;
4676;SDS011;2352;48.180;11.478;2022-12-18T17:11:04;33.03;;;24.97;;
4676;SDS011;2352;48.180;11.478;2022-12-18T17:14:09;36.17;;;24.37;;
4676;SDS011;2352;48.180;11.478;2022-12-18T17:17:15;29.63;;;23.03;;
4676;SDS011;2352;48.180;11.478;2022-12-18T17:20:23;32.70;;;24.07;;
4676;SDS011;2352;48.180;11.478;2022-12-18T17:23:26;36.50;;;26.13;;
4676;SDS011;2352;48.180;11.478;2022-12-18T17:26:29;31.97;;;23.93;;
4676;SDS011;2352;48.180;11.478;2022-12-18T17:29:32;34.27;;;25.00;;
4676;SDS011;2352;48.180;11.478;2022-12-18T17:32:36;33.13;;;24.00;;
4676;SDS011;2352;48.180;11.478;2022-12-18T17:35:39;36.57;;;26.73;;
4676;SDS011;2352;48.180;11.478;2022-12-18T17:38:42;31.67;;;23.17;;
4676;SDS011;2352;48.180;11.478;2022-12-18T17:41:51;32.40;;;24.03;;
4676;SDS011;2352;48.180;11.478;2022-12-18T17:44:53;36.20;;;25.90;;
4676;SDS011;2352;48.180;11.478;2022-12-18T17:47:58;37.50;;;26.27;;
4676;SDS011;2352;48.180;11.478;2022-12-18T17:51:01;35.57;;;26.33;;
4676;SDS011;2352;48.180;11.478;2022-12-18T17:54:04;35.80;;;26.73;;
4676;SDS011;2352;48.180;11.478;2022-12-18T17:57:07;35.63;;;26.20;;
4676;SDS011;2352;48.180;11.478;2022-12-18T18:00:10;39.30;;;27.47;;
4676;SDS011;2352;48.180;11.478;2022-12-18T18:03:16;38.40;;;27.60;;
4676;SDS011;2352;48.180;11.478;2022-12-18T18:06:20;34.77;;;25.70;;
4676;SDS011;2352;48.180;11.478;2022-12-18T18:09:23;36.67;;;25.40;;
4676;SDS011;2352;48.180;11.478;2022-12-18T18:12:26;42.50;;;28.07;;
4676;SDS011;2352;48.180;11.478;2022-12-18T18:15:53;36.97;;;26.73;;
4676;SDS011;2352;48.180;11.478;2022-12-18T18:18:58;34.20;;;25.53;;
4676;SDS011;2352;48.180;11.478;2022-12-18T18:22:03;38.33;;;27.80;;
4676;SDS011;2352;48.180;11.478;2022-12-18T18:25:06;36.83;;;27.17;;
4676;SDS011;2352;48.180;11.478;2022-12-18T18:28:10;38.83;;;28.23;;
4676;SDS011;2352;48.180;11.478;2022-12-18T18:31:14;40.87;;;28.80;;
4676;SDS011;2352;48.180;11.478;2022-12-18T18:34:19;40.23;;;29.03;;